Time;durP1;ratioP1;P1;durP2;ratioP2;P2;SDS_P1;SDS_P2;PMS_P1;PMS_P2;Temp;Humidity;BMP_temperature;BMP_pressure;BME280_temperature;BME280_humidity;BME280_pressure;Samples;Min_cycle;Max_cycle;Signal;HPM_P1;HPM_P2
2022/06/01 00:00:56;;;;;;;30.83;28.20;;;;;;;8.75;100.00;101317.63;4966512;28;20494;-64
2022/06/01 00:03:24;;;;;;;31.85;29.15;;;;;;;8.73;100.00;101319.25;4965808;28;20074;-64
2022/06/01 00:05:53;;;;;;;33.10;30.30;;;;;;;8.71;100.00;101321.78;4966081;28;20526;-64
2022/06/01 00:08:20;;;;;;;32.83;30.13;;;;;;;8.69;100.00;101317.38;4967136;28;20022;-64
2022/06/01 00:10:46;;;;;;;34.15;31.20;;;;;;;8.67;100.00;101325.03;4969194;28;20376;-64
2022/06/01 00:13:11;;;;;;;32.88;30.00;;;;;;;8.63;100.00;101318.81;4965912;28;20037;-64
2022/06/01 00:15:36;;;;;;;34.70;31.80;;;;;;;8.59;100.00;101327.25;4964101;28;20254;-64
2022/06/01 00:18:02;;;;;;;33.92;31.13;;;;;;;8.57;100.00;101334.03;4968673;28;20475;-64
2022/06/01 00:20:28;;;;;;;35.10;32.10;;;;;;;8.54;100.00;101328.69;4968235;28;20047;-64
2022/06/01 00:22:53;;;;;;;36.10;32.97;;;;;;;8.53;100.00;101330.41;4968766;28;20034;-64
2022/06/01 00:25:19;;;;;;;34.42;31.52;;;;;;;8.52;100.00;101331.22;4968478;28;20026;-64
2022/06/01 00:27:44;;;;;;;35.13;32.22;;;;;;;8.50;100.00;101329.34;4968257;28;20129;-64
2022/06/01 00:30:12;;;;;;;36.90;33.63;;;;;;;8.51;100.00;101331.13;4968183;28;20054;-64
2022/06/01 00:32:38;;;;;;;35.75;32.67;;;;;;;8.51;100.00;101331.13;4968783;28;20030;-64
2022/06/01 00:35:05;;;;;;;38.97;35.55;;;;;;;8.51;100.00;101334.59;4968306;28;20029;-64
2022/06/01 00:37:30;;;;;;;44.58;40.78;;;;;;;8.50;100.00;101326.78;4965098;28;20031;-64
2022/06/01 00:39:56;;;;;;;47.70;43.63;;;;;;;8.49;100.00;101330.19;4968187;28;20029;-64
2022/06/01 00:42:25;;;;;;;48.60;44.17;;;;;;;8.48;100.00;101329.28;4967927;28;20425;-64
2022/06/01 00:44:51;;;;;;;49.17;44.78;;;;;;;8.46;100.00;101327.44;4968066;28;20038;-64
2022/06/01 00:47:18;;;;;;;49.53;45.20;;;;;;;8.47;100.00;101329.22;4967890;28;20031;-64
2022/06/01 00:49:51;;;;;;;48.20;43.90;;;;;;;8.48;100.00;101324.13;4965701;28;20031;-64
2022/06/01 00:52:35;;;;;;;45.78;41.67;;;;;;;8.48;100.00;101320.63;4968625;28;20055;-64
2022/06/01 00:55:03;;;;;;;44.47;40.47;;;;;;;8.48;100.00;101328.38;4967667;28;20034;-64
2022/06/01 00:57:29;;;;;;;43.72;39.85;;;;;;;8.48;100.00;101320.63;4967054;28;20467;-64
2022/06/01 00:59:55;;;;;;;44.88;41.00;;;;;;;8.48;100.00;101333.56;4968123;28;20030;-64
2022/06/01 01:02:20;;;;;;;43.90;40.00;;;;;;;8.49;100.00;101325.88;4965277;28;20027;-64
2022/06/01 01:04:45;;;;;;;42.45;38.75;;;;;;;8.47;100.00;101317.16;4967930;28;20446;-64
2022/06/01 01:07:12;;;;;;;42.88;39.13;;;;;;;8.46;100.00;101322.25;4967625;28;20854;-64
2022/06/01 01:09:38;;;;;;;43.47;39.33;;;;;;;8.43;100.00;101324.69;4967185;28;20029;-64
2022/06/01 01:12:07;;;;;;;43.38;39.58;;;;;;;8.44;100.00;101327.34;4965285;28;20026;-63
2022/06/01 01:14:36;;;;;;;44.65;40.45;;;;;;;8.40;100.00;101326.31;4967132;28;20613;-64
2022/06/01 01:17:04;;;;;;;46.05;41.85;;;;;;;8.39;100.00;101318.50;4967784;28;20031;-63
2022/06/01 01:19:35;;;;;;;46.15;42.13;;;;;;;8.39;100.00;101321.09;4967650;28;20030;-64
2022/06/01 01:22:27;;;;;;;48.88;44.38;;;;;;;8.38;100.00;101317.59;4967381;28;20023;-64
2022/06/01 01:25:15;;;;;;;52.00;47.20;;;;;;;8.36;100.00;101324.41;4967286;28;20022;-64
2022/06/01 01:27:41;;;;;;;50.58;45.85;;;;;;;8.35;100.00;101321.72;4967981;28;20117;-64
2022/06/01 01:30:27;;;;;;;50.63;46.03;;;;;;;8.35;100.00;101312.31;4967206;28;20602;-64
2022/06/01 01:32:53;;;;;;;53.03;48.33;;;;;;;8.35;100.00;101314.88;4967365;28;20457;-64
2022/06/01 01:35:19;;;;;;;52.17;47.33;;;;;;;8.36;100.00;101311.50;4965012;28;20026;-65
2022/06/01 01:37:45;;;;;;;53.35;48.42;;;;;;;8.41;100.00;101312.63;4967344;28;20040;-64
2022/06/01 01:40:11;;;;;;;48.78;44.40;;;;;;;8.47;100.00;101300.81;4967079;28;20118;-64
2022/06/01 01:42:36;;;;;;;46.03;41.83;;;;;;;8.50;100.00;101306.09;4967185;28;20121;-64
2022/06/01 01:45:20;;;;;;;47.35;43.15;;;;;;;8.51;100.00;101307.88;4964842;28;20030;-64
2022/06/01 01:47:47;;;;;;;45.28;41.17;;;;;;;8.52;100.00;101304.50;4982245;28;20045;-64
2022/06/01 01:50:12;;;;;;;44.35;40.47;;;;;;;8.53;100.00;101308.84;4967207;28;20447;-64
2022/06/01 01:52:37;;;;;;;44.17;40.35;;;;;;;8.55;100.00;101314.06;4966404;28;20030;-64
2022/06/01 01:55:12;;;;;;;42.13;38.38;;;;;;;8.55;100.00;101321.81;4967203;28;20069;-64
2022/06/01 01:58:03;;;;;;;40.90;37.30;;;;;;;8.59;100.00;101316.91;4967204;28;20098;-64
2022/06/01 02:00:35;;;;;;;41.30;37.80;;;;;;;8.64;100.00;101317.13;4966968;28;20019;-64
2022/06/01 02:03:12;;;;;;;43.15;39.13;;;;;;;8.67;100.00;101313.81;4966378;28;20027;-64
2022/06/01 02:08:41;;;;;;;42.13;38.42;;;;;;;8.75;100.00;101317.63;4968711;28;20101;-64
2022/06/01 02:14:29;;;;;;;42.28;38.58;;;;;;;8.77;100.00;101316.03;4970790;28;20062;-64
2022/06/01 02:17:05;;;;;;;42.63;38.83;;;;;;;8.76;100.00;101319.44;4970843;28;20114;-64
2022/06/01 02:19:37;;;;;;;44.38;40.38;;;;;;;8.76;100.00;101315.13;4968200;28;20105;-64
2022/06/01 02:22:03;;;;;;;43.75;39.75;;;;;;;8.76;100.00;101324.59;4969054;28;20471;-64
2022/06/01 02:24:29;;;;;;;43.38;39.50;;;;;;;8.75;100.00;101313.38;4970602;28;20109;-64
2022/06/01 02:26:56;;;;;;;43.50;39.50;;;;;;;8.75;100.00;101318.53;4970254;28;20115;-64
2022/06/01 02:29:28;;;;;;;42.22;38.58;;;;;;;8.76;100.00;101320.28;4970244;28;20557;-64
2022/06/01 02:31:55;;;;;;;40.65;37.03;;;;;;;8.74;100.00;101321.91;4970730;28;20034;-64
2022/06/01 02:34:22;;;;;;;41.35;37.75;;;;;;;8.71;100.00;101316.59;4970681;28;20038;-64
2022/06/01 02:36:49;;;;;;;41.17;37.45;;;;;;;8.69;100.00;101327.69;4970845;28;20026;-64
2022/06/01 02:39:15;;;;;;;40.70;37.17;;;;;;;8.65;100.00;101322.38;4971072;28;20023;-64
2022/06/01 02:44:25;;;;;;;40.08;36.58;;;;;;;8.63;100.00;101317.97;4971533;28;20502;-64
2022/06/01 02:46:50;;;;;;;40.17;36.15;;;;;;;8.59;100.00;101311.75;4970950;28;20030;-64
2022/06/01 02:49:17;;;;;;;40.75;37.08;;;;;;;8.58;100.00;101317.72;4970637;28;20089;-64
2022/06/01 02:51:46;;;;;;;42.17;38.50;;;;;;;8.55;100.00;101314.06;4970995;28;20073;-64
2022/06/01 02:54:12;;;;;;;41.53;37.78;;;;;;;8.48;100.00;101323.22;4968043;28;20042;-64
2022/06/01 02:56:38;;;;;;;40.40;36.83;;;;;;;8.43;100.00;101319.53;4970688;28;20026;-64
2022/06/01 02:59:03;;;;;;;41.35;37.42;;;;;;;8.38;100.00;101320.19;4985751;28;20029;-64
2022/06/01 03:01:29;;;;;;;41.65;37.78;;;;;;;8.34;100.00;101318.28;4970354;28;20057;-64
2022/06/01 03:03:54;;;;;;;39.42;35.95;;;;;;;8.32;100.00;101317.31;4969981;28;20026;-64
2022/06/01 03:06:19;;;;;;;40.75;37.05;;;;;;;8.27;100.00;101316.22;4970486;28;20026;-64
2022/06/01 03:08:45;;;;;;;40.20;36.38;;;;;;;8.24;100.00;101309.19;4971111;28;20037;-64
2022/06/01 03:11:12;;;;;;;41.20;37.45;;;;;;;8.20;100.00;101322.78;4970915;28;20834;-65
2022/06/01 03:13:37;;;;;;;39.28;35.60;;;;;;;8.20;100.00;101317.63;4970670;28;20554;-64
2022/06/01 03:16:03;;;;;;;37.65;34.22;;;;;;;8.21;100.00;101319.38;4966744;28;20110;-64
2022/06/01 03:18:28;;;;;;;38.03;34.35;;;;;;;8.20;100.00;101324.47;4968039;28;20061;-64
2022/06/01 03:20:53;;;;;;;36.55;33.05;;;;;;;8.13;100.00;101318.13;4966245;28;20505;-64
2022/06/01 03:23:19;;;;;;;37.20;33.70;;;;;;;8.09;100.00;101322.25;4967889;28;20382;-64
2022/06/01 03:25:44;;;;;;;39.13;35.35;;;;;;;8.08;100.00;101323.03;4965568;28;20034;-64
2022/06/01 03:28:10;;;;;;;38.40;34.75;;;;;;;8.07;100.00;101325.53;4965802;28;20030;-64
2022/06/01 03:30:35;;;;;;;37.58;34.10;;;;;;;8.05;100.00;101317.72;4967493;28;20074;-64
2022/06/01 03:33:00;;;;;;;37.13;33.53;;;;;;;8.02;100.00;101318.44;4966707;28;20023;-64
2022/06/01 03:35:31;;;;;;;38.15;34.65;;;;;;;7.99;100.00;101314.81;4968437;28;20023;-64
2022/06/01 03:37:57;;;;;;;37.70;34.15;;;;;;;7.97;100.00;101319.03;4966126;28;20113;-64
2022/06/01 03:40:24;;;;;;;37.65;33.95;;;;;;;7.96;100.00;101322.41;4968635;28;20022;-64
2022/06/01 03:42:50;;;;;;;35.40;32.25;;;;;;;7.96;100.00;101327.56;4969154;28;20109;-64
2022/06/01 03:47:59;;;;;;;36.22;32.50;;;;;;;7.99;100.00;101322.56;4966563;28;20037;-64
2022/06/01 03:50:26;;;;;;;34.20;30.77;;;;;;;7.99;100.00;101325.16;4966464;28;20031;-64
2022/06/01 03:52:52;;;;;;;33.42;30.10;;;;;;;7.98;100.00;101326.88;4968733;28;20022;-64
2022/06/01 03:55:18;;;;;;;32.30;29.40;;;;;;;7.98;100.00;101325.97;4966067;28;20547;-64
2022/06/01 03:57:44;;;;;;;31.40;28.38;;;;;;;8.00;100.00;101329.53;4969200;28;20058;-64
2022/06/01 04:00:14;;;;;;;31.38;28.45;;;;;;;8.01;100.00;101328.69;4966524;28;20061;-64
2022/06/01 04:02:41;;;;;;;32.00;28.93;;;;;;;7.99;100.00;101326.03;4952584;28;20031;-64
2022/06/01 04:05:08;;;;;;;31.38;28.38;;;;;;;7.98;100.00;101336.28;4950523;28;20031;-64
2022/06/01 04:07:33;;;;;;;30.60;27.73;;;;;;;7.98;100.00;101332.03;4951035;28;20034;-64
2022/06/01 04:09:58;;;;;;;30.30;27.55;;;;;;;7.99;100.00;101332.88;4950415;28;20480;-64
2022/06/01 04:12:24;;;;;;;31.40;28.40;;;;;;;7.99;100.00;101338.06;4951427;28;20023;-64
2022/06/01 04:14:49;;;;;;;31.38;28.45;;;;;;;7.98;100.00;101332.03;4951016;28;20041;-64
2022/06/01 04:17:14;;;;;;;30.38;27.58;;;;;;;7.99;100.00;101333.78;4950107;28;20031;-64
2022/06/01 04:19:40;;;;;;;30.58;27.67;;;;;;;7.99;100.00;101327.72;4913630;28;1087235;-64
2022/06/01 04:22:07;;;;;;;32.08;29.05;;;;;;;8.00;100.00;101332.09;4951476;28;20517;-64
2022/06/01 04:24:34;;;;;;;29.35;26.65;;;;;;;8.03;100.00;101342.56;4951952;28;20031;-63
2022/06/01 04:26:59;;;;;;;28.10;25.42;;;;;;;8.02;100.00;101339.09;4951451;28;20106;-64
2022/06/01 04:29:25;;;;;;;29.05;26.15;;;;;;;8.01;100.00;101339.03;4950123;28;20042;-64
2022/06/01 04:32:00;;;;;;;30.33;27.40;;;;;;;8.01;100.00;101342.50;4951339;28;20074;-64
2022/06/01 04:34:26;;;;;;;29.20;26.27;;;;;;;8.02;100.00;101341.66;4951350;28;20449;-64
2022/06/01 04:36:54;;;;;;;27.85;25.15;;;;;;;8.04;100.00;101340.06;4951526;28;20039;-64
2022/06/01 04:39:19;;;;;;;27.70;25.00;;;;;;;8.08;100.00;101341.09;4950874;28;20027;-64
2022/06/01 04:41:45;;;;;;;28.73;25.83;;;;;;;8.11;100.00;101337.81;4951000;28;20031;-64
2022/06/01 04:44:10;;;;;;;27.50;25.08;;;;;;;8.13;100.00;101344.78;4951018;28;20305;-64
2022/06/01 04:46:36;;;;;;;28.75;26.05;;;;;;;8.17;100.00;101341.56;4951345;28;20046;-64
2022/06/01 04:49:02;;;;;;;29.75;26.88;;;;;;;8.24;100.00;101339.31;4950935;28;20046;-64
2022/06/01 04:51:27;;;;;;;30.02;27.02;;;;;;;8.27;100.00;101340.31;4961676;28;20023;-64
2022/06/01 04:53:53;;;;;;;29.17;26.30;;;;;;;8.33;100.00;101344.91;4959359;28;20054;-64
2022/06/01 04:56:18;;;;;;;30.60;27.50;;;;;;;8.38;100.00;101348.59;4963166;28;20045;-64
2022/06/01 04:58:43;;;;;;;31.80;26.77;;;;;;;8.42;100.00;101344.47;4967074;28;20023;-64
2022/06/01 05:01:09;;;;;;;30.20;27.00;;;;;;;8.45;100.00;101354.97;4967075;28;20126;-64
2022/06/01 05:03:34;;;;;;;29.63;26.08;;;;;;;8.50;100.00;101350.03;4963802;28;20034;-64
2022/06/01 05:06:00;;;;;;;29.25;26.20;;;;;;;8.52;100.00;101351.88;4968456;28;20031;-63
2022/06/01 05:08:25;;;;;;;28.95;26.13;;;;;;;8.55;100.00;101351.13;4965681;28;20045;-64
2022/06/01 05:10:50;;;;;;;33.42;27.23;;;;;;;8.56;100.00;101355.53;4964928;28;20050;-64
2022/06/01 05:13:19;;;;;;;31.00;27.65;;;;;;;8.62;100.00;101353.22;4966604;28;20486;-64
2022/06/01 05:15:48;;;;;;;27.40;24.42;;;;;;;8.58;100.00;101351.31;4967721;28;20376;-64
2022/06/01 05:18:14;;;;;;;25.73;23.10;;;;;;;8.62;100.00;101353.22;4968041;28;20023;-63
2022/06/01 05:20:42;;;;;;;25.25;22.70;;;;;;;8.67;100.00;101345.69;4965821;28;20134;-64
2022/06/01 05:23:07;;;;;;;26.25;23.52;;;;;;;8.74;100.00;101344.31;4967497;28;20284;-64
2022/06/01 05:25:32;;;;;;;25.70;22.30;;;;;;;8.79;100.00;101340.25;4966545;28;20068;-64
2022/06/01 05:27:58;;;;;;;25.08;22.60;;;;;;;8.87;100.00;101338.91;4966213;28;20036;-64
2022/06/01 05:30:23;;;;;;;23.55;21.38;;;;;;;8.96;100.00;101342.75;4967765;28;20041;-64
2022/06/01 05:32:48;;;;;;;23.70;20.98;;;;;;;9.04;100.00;101343.97;4960746;28;20109;-64
2022/06/01 05:35:13;;;;;;;23.83;21.23;;;;;;;9.10;100.00;101349.41;4962311;28;20402;-64
2022/06/01 05:37:39;;;;;;;22.88;20.27;;;;;;;9.17;100.00;101354.88;4967076;28;20034;-64
2022/06/01 05:40:05;;;;;;;22.45;20.05;;;;;;;9.15;100.00;101349.66;4964167;28;20015;-64
2022/06/01 05:42:30;;;;;;;22.30;19.92;;;;;;;9.31;100.00;101347.75;4967325;28;20066;-64
2022/06/01 05:44:56;;;;;;;22.35;20.13;;;;;;;9.46;100.00;101352.75;4967885;28;20047;-64
2022/06/01 05:47:21;;;;;;;23.10;21.05;;;;;;;9.59;100.00;101343.81;4963548;28;20050;-64
2022/06/01 05:49:47;;;;;;;21.83;19.73;;;;;;;9.74;100.00;101351.38;4966882;28;20031;-64
2022/06/01 05:52:13;;;;;;;20.52;18.42;;;;;;;9.89;100.00;101351.16;4965366;28;20031;-64
2022/06/01 05:54:38;;;;;;;22.75;18.73;;;;;;;10.04;100.00;101350.00;4958598;28;20094;-64
2022/06/01 05:57:04;;;;;;;20.48;18.30;;;;;;;10.14;100.00;101353.91;4956334;28;20023;-64
2022/06/01 05:59:29;;;;;;;21.60;17.10;;;;;;;10.35;100.00;101350.41;4950827;28;20023;-64
2022/06/01 06:01:55;;;;;;;20.58;18.63;;;;;;;10.46;100.00;101359.53;4958794;28;20081;-64
2022/06/01 06:04:21;;;;;;;18.58;16.42;;;;;;;10.56;100.00;101356.50;4967738;28;20496;-64
2022/06/01 06:06:46;;;;;;;18.75;14.88;;;;;;;10.71;100.00;101362.25;4967705;28;20042;-64
2022/06/01 06:09:11;;;;;;;17.90;16.17;;;;;;;10.92;100.00;101360.50;4968014;28;20129;-64
2022/06/01 06:11:38;;;;;;;16.38;14.77;;;;;;;11.07;100.00;101366.22;4967203;28;20105;-64
2022/06/01 06:14:04;;;;;;;15.70;14.00;;;;;;;11.28;100.00;101366.16;4960577;28;20026;-64
2022/06/01 06:16:34;;;;;;;17.92;13.88;;;;;;;11.53;100.00;101370.53;4952427;28;20129;-64
2022/06/01 06:19:00;;;;;;;15.65;14.05;;;;;;;11.70;100.00;101372.88;4950052;28;20114;-64
2022/06/01 06:21:28;;;;;;;15.95;14.18;;;;;;;11.80;100.00;101363.69;4956675;28;20471;-64
2022/06/01 06:24:01;;;;;;;14.18;12.88;;;;;;;11.96;100.00;101365.09;4959031;28;20022;-66
2022/06/01 06:26:27;;;;;;;13.13;11.95;;;;;;;12.20;100.00;101368.53;4955281;28;20780;-65
2022/06/01 06:28:52;;;;;;;12.88;11.68;;;;;;;12.44;100.00;101371.06;4958082;28;20487;-66
2022/06/01 06:31:18;;;;;;;12.75;11.43;;;;;;;12.70;100.00;101371.00;4954110;28;20042;-65
2022/06/01 06:33:43;;;;;;;13.02;11.70;;;;;;;12.94;100.00;101375.22;4958241;28;20074;-66
2022/06/01 06:36:11;;;;;;;13.25;11.70;;;;;;;12.99;100.00;101382.28;4956249;28;20034;-66
2022/06/01 06:38:37;;;;;;;15.43;11.65;;;;;;;13.00;100.00;101386.66;4964800;28;20380;-66
2022/06/01 06:41:04;;;;;;;12.20;10.32;;;;;;;13.14;100.00;101392.28;4965219;28;20018;-65
2022/06/01 06:43:33;;;;;;;11.50;9.30;;;;;;;13.32;100.00;101397.16;4964794;28;20019;-65
2022/06/01 06:46:02;;;;;;;10.10;9.10;;;;;;;13.51;99.99;101397.69;4964388;28;20106;-66
2022/06/01 06:48:28;;;;;;;10.10;8.30;;;;;;;13.79;100.00;101399.38;4967308;28;20454;-66
2022/06/01 06:50:54;;;;;;;8.90;8.10;;;;;;;14.00;96.64;101398.19;4954017;28;20027;-66
2022/06/01 06:53:20;;;;;;;9.88;8.20;;;;;;;14.13;95.19;101403.72;4954300;28;20023;-66
2022/06/01 06:55:45;;;;;;;10.18;9.15;;;;;;;14.22;96.40;101403.09;4955729;28;20027;-66
2022/06/01 06:58:11;;;;;;;9.98;8.20;;;;;;;14.51;97.93;101405.56;4966667;28;20126;-66
2022/06/01 07:00:37;;;;;;;9.70;8.07;;;;;;;14.76;94.22;101401.81;4964394;28;20054;-66
2022/06/01 07:03:04;;;;;;;8.90;8.00;;;;;;;15.02;91.69;101403.28;4969605;28;20029;-66
2022/06/01 07:08:13;;;;;;;9.77;8.77;;;;;;;15.12;88.80;101405.28;4967539;28;20045;-66
2022/06/01 07:10:38;;;;;;;10.40;9.15;;;;;;;15.19;93.27;101415.81;4963329;28;20027;-66
2022/06/01 07:13:04;;;;;;;10.02;9.13;;;;;;;15.28;90.75;101409.91;4960432;28;20441;-66
2022/06/01 07:15:29;;;;;;;10.48;8.40;;;;;;;15.41;92.77;101416.28;4956073;28;20042;-66
2022/06/01 07:17:54;;;;;;;8.23;7.35;;;;;;;15.56;88.46;101418.34;4957758;28;20030;-66
2022/06/01 07:20:21;;;;;;;8.75;8.05;;;;;;;15.73;87.25;101418.69;4969868;28;20043;-66
2022/06/01 07:22:47;;;;;;;12.93;7.85;;;;;;;15.28;87.02;101417.75;4962987;28;20167;-66
2022/06/01 07:25:12;;;;;;;8.27;7.47;;;;;;;15.35;89.45;101414.44;4968567;28;20034;-66
2022/06/01 07:27:37;;;;;;;6.88;6.25;;;;;;;15.66;87.96;101417.69;4961481;28;20038;-66
2022/06/01 07:30:04;;;;;;;11.20;7.13;;;;;;;15.82;83.04;101420.59;4968428;28;20057;-66
2022/06/01 07:32:30;;;;;;;7.75;6.15;;;;;;;15.87;82.64;101415.44;4959351;28;20677;-66
2022/06/01 07:34:55;;;;;;;6.38;5.78;;;;;;;16.13;83.43;101412.47;4969564;28;20031;-66
2022/06/01 07:43:07;;;;;;;8.90;6.47;;;;;;;16.15;81.55;101421.25;4965224;28;20134;-66
2022/06/01 07:45:39;;;;;;;6.40;5.80;;;;;;;15.93;79.33;101420.81;4967434;28;20415;-66
2022/06/01 07:48:06;;;;;;;6.85;6.05;;;;;;;16.00;82.42;101420.09;4968372;28;20020;-66
2022/06/01 07:50:33;;;;;;;7.47;4.85;;;;;;;16.18;79.07;101408.22;4969638;28;20043;-66
2022/06/01 07:52:59;;;;;;;7.05;5.28;;;;;;;16.29;76.33;101409.28;4966741;28;20023;-66
2022/06/01 07:55:25;;;;;;;7.30;4.82;;;;;;;16.48;76.54;101420.06;4966688;28;20535;-66
2022/06/01 07:57:51;;;;;;;6.03;4.47;;;;;;;16.67;75.49;101415.13;4953577;28;20031;-66
2022/06/01 08:00:17;;;;;;;7.10;5.10;;;;;;;16.36;78.25;101419.84;4961064;28;20487;-66
2022/06/01 08:02:43;;;;;;;7.88;4.93;;;;;;;16.02;81.23;101425.34;4967038;28;20121;-67
2022/06/01 08:05:10;;;;;;;4.53;3.20;;;;;;;15.84;78.95;101425.00;4958952;28;20026;-67
2022/06/01 08:07:36;;;;;;;5.22;2.90;;;;;;;15.76;76.62;101423.09;4966366;28;20506;-67
2022/06/01 08:10:02;;;;;;;3.53;3.22;;;;;;;15.84;76.87;101426.75;4961508;28;20039;-66
2022/06/01 08:15:13;;;;;;;5.45;4.10;;;;;;;15.65;75.30;101433.34;4964326;28;20050;-66
2022/06/01 08:17:41;;;;;;;4.00;3.70;;;;;;;15.90;73.81;101428.59;4962360;28;20030;-66
2022/06/01 08:20:07;;;;;;;5.18;3.60;;;;;;;15.99;75.00;101428.78;4968117;28;20031;-67
2022/06/01 08:22:32;;;;;;;5.18;4.05;;;;;;;15.74;73.45;101428.28;4960378;28;20490;-66
2022/06/01 08:24:58;;;;;;;5.80;5.22;;;;;;;15.50;75.19;101437.38;4964882;28;20031;-66
2022/06/01 08:27:23;;;;;;;6.00;5.25;;;;;;;15.59;77.55;101427.13;4958576;28;20086;-67
2022/06/01 08:29:48;;;;;;;5.40;4.90;;;;;;;16.00;74.93;101425.34;4966255;28;20357;-66
2022/06/01 08:32:14;;;;;;;6.10;5.50;;;;;;;16.37;76.48;101417.25;4964787;28;20018;-67
2022/06/01 08:34:39;;;;;;;5.03;4.57;;;;;;;16.67;73.27;101416.03;4960675;28;20457;-66
2022/06/01 08:37:04;;;;;;;5.88;4.70;;;;;;;17.02;71.21;101412.16;4965899;28;20075;-66
2022/06/01 08:39:30;;;;;;;6.07;4.13;;;;;;;17.54;69.62;101412.00;4968233;28;20026;-66
2022/06/01 08:41:58;;;;;;;5.00;3.92;;;;;;;17.53;66.73;101413.72;4963574;28;20023;-67
2022/06/01 08:44:33;;;;;;;3.60;3.30;;;;;;;17.61;64.87;101405.97;4964573;28;20105;-67
2022/06/01 08:47:04;;;;;;;2.80;2.53;;;;;;;17.81;64.53;101410.53;4964422;28;20054;-67
2022/06/01 08:49:33;;;;;;;4.28;3.00;;;;;;;18.17;61.73;101408.31;4968266;28;20462;-67
2022/06/01 08:51:58;;;;;;;3.63;2.97;;;;;;;18.40;61.35;101408.53;4967948;28;20019;-67
2022/06/01 08:54:24;;;;;;;3.50;3.20;;;;;;;18.06;61.74;101413.41;4968197;28;20042;-67
2022/06/01 08:56:54;;;;;;;3.75;3.28;;;;;;;17.99;61.33;101421.22;4962930;28;20243;-67
2022/06/01 08:59:34;;;;;;;5.10;3.10;;;;;;;17.90;62.63;101413.25;4967749;28;20035;-67
2022/06/01 09:02:18;;;;;;;5.50;3.20;;;;;;;17.66;61.56;101425.22;4966707;28;20026;-67
2022/06/01 09:04:50;;;;;;;3.80;3.50;;;;;;;17.36;64.65;101424.00;4968206;28;20037;-67
2022/06/01 09:07:15;;;;;;;5.07;3.25;;;;;;;17.14;66.24;101431.56;4962668;28;20034;-67
2022/06/01 09:10:02;;;;;;;4.28;3.20;;;;;;;17.38;66.64;101432.72;4958807;28;20523;-67
2022/06/01 09:12:28;;;;;;;6.60;3.20;;;;;;;17.52;64.62;101423.31;4957140;28;20031;-66
2022/06/01 09:14:56;;;;;;;3.22;2.80;;;;;;;17.51;63.97;101421.56;4967944;28;20061;-67
2022/06/01 09:17:21;;;;;;;2.97;2.78;;;;;;;17.45;62.93;101418.84;4959338;28;20494;-67
2022/06/01 09:22:42;;;;;;;6.47;3.10;;;;;;;17.04;67.24;101420.03;4963032;28;20077;-66
2022/06/01 09:25:10;;;;;;;3.88;3.05;;;;;;;16.83;63.15;101416.25;4966735;28;20033;-67
2022/06/01 09:27:47;;;;;;;2.75;2.50;;;;;;;16.67;63.75;101415.13;4966505;28;20065;-67
2022/06/01 09:30:36;;;;;;;4.28;2.38;;;;;;;16.63;65.50;101423.78;4965888;28;20415;-67
2022/06/01 09:33:26;;;;;;;3.83;2.90;;;;;;;16.60;66.02;101424.63;4964439;28;20460;-67
2022/06/01 09:36:06;;;;;;;2.40;2.20;;;;;;;16.72;68.69;101446.59;4965436;28;20062;-66
2022/06/01 09:38:49;;;;;;;3.58;2.78;;;;;;;16.84;67.18;101449.41;4964690;28;20042;-67
2022/06/01 09:41:28;;;;;;;3.35;2.88;;;;;;;16.61;68.19;101442.06;4965875;28;20023;-67
2022/06/01 09:43:57;;;;;;;3.65;3.33;;;;;;;16.36;68.82;101443.38;4967617;28;20050;-67
2022/06/01 09:46:35;;;;;;;2.72;2.30;;;;;;;15.90;68.39;101452.97;4967117;28;20027;-66
2022/06/01 09:49:05;;;;;;;3.47;2.55;;;;;;;15.32;69.30;101449.22;4968747;28;20027;-67
2022/06/01 09:51:32;;;;;;;2.70;2.50;;;;;;;14.91;72.17;101451.75;4967353;28;20478;-67
2022/06/01 09:54:09;;;;;;;2.60;2.40;;;;;;;14.74;73.09;101445.25;4966886;28;20792;-66
2022/06/01 09:56:41;;;;;;;3.53;2.38;;;;;;;14.67;76.54;101447.66;4963592;28;20038;-67
2022/06/01 10:07:41;;;;;;;2.92;2.33;;;;;;;14.41;76.64;101457.47;4958741;28;20030;-66
2022/06/01 10:10:06;;;;;;;5.15;2.30;;;;;;;14.43;77.00;101460.09;4960545;28;20023;-66
2022/06/01 10:12:41;;;;;;;4.13;2.58;;;;;;;14.48;79.76;101470.66;4959368;28;20031;-66
2022/06/01 10:15:22;;;;;;;3.80;2.50;;;;;;;14.46;81.08;101488.00;4965826;28;20027;-67
2022/06/01 10:17:53;;;;;;;5.43;2.85;;;;;;;14.23;81.47;101488.28;4967846;28;20038;-67
2022/06/01 10:20:25;;;;;;;5.65;3.42;;;;;;;14.02;84.39;101484.22;4966500;28;20524;-67
2022/06/01 10:22:54;;;;;;;5.47;4.97;;;;;;;13.79;86.27;101507.88;4968567;28;20470;-67
2022/06/01 10:25:37;;;;;;;11.00;6.68;;;;;;;13.54;90.23;101492.44;4966836;28;20043;-67
2022/06/01 10:28:06;;;;;;;12.52;5.45;;;;;;;13.32;88.46;101496.06;4967374;28;20510;-66
2022/06/01 10:30:40;;;;;;;6.88;5.60;;;;;;;13.07;89.44;101521.28;4966587;28;20388;-66
2022/06/01 10:33:09;;;;;;;7.63;5.40;;;;;;;12.89;92.10;101518.97;4967511;28;20142;-66
2022/06/01 10:35:59;;;;;;;5.70;5.20;;;;;;;12.69;93.54;101509.66;4964400;28;20046;-66
2022/06/01 10:38:43;;;;;;;5.13;4.65;;;;;;;12.58;93.60;101493.69;4965772;28;20034;-66
2022/06/01 10:41:25;;;;;;;4.88;3.70;;;;;;;12.44;95.03;101503.63;4968012;28;20034;-66
2022/06/01 10:44:08;;;;;;;2.90;2.70;;;;;;;12.32;94.86;101488.47;4964456;28;20061;-66
2022/06/01 10:46:57;;;;;;;2.63;2.40;;;;;;;12.35;97.87;101495.50;4957123;28;20074;-66
2022/06/01 10:49:22;;;;;;;3.17;2.80;;;;;;;12.43;98.32;101490.59;4966250;28;20032;-66
2022/06/01 10:52:00;;;;;;;4.57;3.00;;;;;;;12.54;100.00;101498.75;4965545;28;20038;-66
2022/06/01 10:54:41;;;;;;;3.47;3.20;;;;;;;12.59;100.00;101489.41;4960749;28;20035;-66
2022/06/01 10:57:10;;;;;;;3.35;3.13;;;;;;;12.79;98.81;101499.59;4965535;28;20026;-66
2022/06/01 10:59:35;;;;;;;3.50;3.25;;;;;;;13.08;99.36;101497.03;4957987;28;20027;-66
2022/06/01 11:02:34;;;;;;;4.07;3.75;;;;;;;13.42;94.32;101486.81;4961002;28;20493;-66
2022/06/01 11:05:19;;;;;;;5.00;4.60;;;;;;;13.88;99.50;101487.31;4962577;28;20059;-66
2022/06/01 11:07:49;;;;;;;4.20;3.80;;;;;;;14.35;97.17;101501.63;4961747;28;20039;-66
2022/06/01 11:10:39;;;;;;;4.43;4.03;;;;;;;14.76;96.86;101503.56;4963536;28;20491;-66
2022/06/01 11:13:34;;;;;;;3.47;3.17;;;;;;;14.98;92.08;101500.63;4966742;28;20305;-66
2022/06/01 11:16:20;;;;;;;4.05;3.65;;;;;;;14.91;93.20;101493.50;4969079;28;20490;-66
2022/06/01 11:19:04;;;;;;;4.10;3.65;;;;;;;14.86;91.81;101491.63;4965332;28;20383;-66
2022/06/01 11:21:52;;;;;;;5.57;4.45;;;;;;;14.85;89.43;101489.88;4968431;28;20051;-66
2022/06/01 11:24:33;;;;;;;5.38;4.50;;;;;;;14.82;87.53;101487.19;4968415;28;20027;-66
2022/06/01 11:27:07;;;;;;;4.15;3.60;;;;;;;14.72;87.23;101493.00;4966208;28;20030;-66
2022/06/01 11:29:41;;;;;;;4.03;3.72;;;;;;;14.53;87.54;101493.38;4960081;28;20124;-66
2022/06/01 11:32:19;;;;;;;4.25;3.95;;;;;;;14.56;90.45;101503.03;4962937;28;20065;-66
2022/06/01 11:35:00;;;;;;;4.10;3.80;;;;;;;14.72;93.72;101503.41;4959628;28;20468;-66
2022/06/01 11:37:57;;;;;;;5.00;4.60;;;;;;;14.93;95.46;101508.31;4967381;28;20022;-66
2022/06/01 11:40:39;;;;;;;4.10;3.80;;;;;;;15.06;90.60;101506.91;4935565;28;20045;-66
2022/06/01 11:43:28;;;;;;;3.00;2.80;;;;;;;15.27;88.28;101503.06;4965279;28;20045;-66
2022/06/01 11:45:58;;;;;;;2.90;2.65;;;;;;;15.48;84.69;101513.09;4964877;28;20391;-66
2022/06/01 11:48:38;;;;;;;2.65;2.45;;;;;;;15.65;81.89;101512.56;4961889;28;20027;-66
2022/06/01 11:51:14;;;;;;;2.55;2.35;;;;;;;15.95;85.28;101508.84;4960224;28;20023;-66
2022/06/01 11:54:04;;;;;;;2.10;1.90;;;;;;;16.27;83.22;101509.47;4968269;28;20022;-66
2022/06/01 11:56:30;;;;;;;1.50;1.40;;;;;;;16.36;75.75;101509.66;4966968;28;20031;-66
2022/06/01 11:59:12;;;;;;;2.45;2.25;;;;;;;16.31;80.83;101506.97;4969024;28;20088;-66